createdAt,value
2023-02-13T00:01:13.141Z,101317.34
2023-02-13T00:03:41.500Z,101309.19
2023-02-13T00:06:09.852Z,101308.31
2023-02-13T00:08:37.933Z,101313.66
2023-02-13T00:11:06.400Z,101309.72
2023-02-13T00:13:35.654Z,101315.66
2023-02-13T00:16:05.055Z,101328.13
2023-02-13T00:18:38.040Z,101327.44
2023-02-13T00:21:11.477Z,101321.03
2023-02-13T00:23:40.615Z,101324.09
2023-02-13T00:26:13.732Z,101332.13
2023-02-13T00:28:44.602Z,101326.47
2023-02-13T00:31:15.506Z,101339.47
2023-02-13T00:33:44.393Z,101338.19
2023-02-13T00:36:15.985Z,101341.28
2023-02-13T00:38:46.486Z,101341.56
2023-02-13T00:41:15.068Z,101338.03
2023-02-13T00:43:43.470Z,101337.31
2023-02-13T00:46:12.022Z,101329.91
2023-02-13T00:48:40.536Z,101333.19
2023-02-13T00:51:08.823Z,101332.75
2023-02-13T00:53:38.289Z,101333.81
2023-02-13T00:56:07.273Z,101332.66
2023-02-13T00:58:37.315Z,101334.28
2023-02-13T01:01:05.923Z,101338.50
2023-02-13T01:03:34.062Z,101339.84
2023-02-13T01:06:02.077Z,101326.56
2023-02-13T01:08:30.468Z,101333.47
2023-02-13T01:10:58.937Z,101323.91
2023-02-13T01:13:27.478Z,101320.28
2023-02-13T01:15:56.638Z,101316.62
2023-02-13T01:18:24.766Z,101315.97
2023-02-13T01:21:01.038Z,101321.94
2023-02-13T01:23:32.882Z,101312.72
2023-02-13T01:26:00.991Z,101305.66
2023-02-13T01:28:29.506Z,101303.69
2023-02-13T01:30:58.508Z,101309.34
2023-02-13T01:33:28.583Z,101310.38
2023-02-13T01:35:57.160Z,101307.41
2023-02-13T01:38:25.296Z,101306.94
2023-02-13T01:40:54.855Z,101297.78
2023-02-13T01:43:25.190Z,101307.09
2023-02-13T01:45:57.159Z,101306.72
2023-02-13T01:48:26.917Z,101305.38
2023-02-13T01:51:02.397Z,101299.28
2023-02-13T01:53:35.368Z,101297.72
2023-02-13T01:56:14.874Z,101295.78
2023-02-13T01:58:46.304Z,101297.47
2023-02-13T02:01:14.333Z,101302.34
2023-02-13T02:03:49.503Z,101297.56
2023-02-13T02:06:29.087Z,101295.91
2023-02-13T02:09:02.062Z,101305.28
2023-02-13T02:11:40.236Z,101304.87
2023-02-13T02:14:08.817Z,101305.03
2023-02-13T02:16:37.668Z,101291.44
2023-02-13T02:19:14.099Z,101286.00
2023-02-13T02:21:45.541Z,101289.88
2023-02-13T02:24:43.408Z,101293.12
2023-02-13T02:27:33.160Z,101294.59
2023-02-13T02:30:31.841Z,101294.19
2023-02-13T02:33:21.413Z,101291.50
2023-02-13T02:36:02.780Z,101297.31
2023-02-13T02:38:59.852Z,101303.84
2023-02-13T02:41:43.230Z,101298.66
2023-02-13T02:44:22.991Z,101295.19
2023-02-13T02:47:13.458Z,101297.34
2023-02-13T02:50:02.348Z,101294.22
2023-02-13T02:52:43.471Z,101299.59
2023-02-13T02:55:22.606Z,101292.16
2023-02-13T02:58:18.284Z,101295.47
2023-02-13T03:01:04.836Z,101290.59
2023-02-13T03:03:53.228Z,101295.84
2023-02-13T03:06:30.223Z,101296.62
2023-02-13T03:09:20.782Z,101291.78
2023-02-13T03:12:13.498Z,101290.31
2023-02-13T03:14:42.951Z,101295.06
2023-02-13T03:17:32.272Z,101292.28
2023-02-13T03:20:36.287Z,101294.56
2023-02-13T03:23:10.600Z,101294.22
2023-02-13T03:25:48.215Z,101285.75
2023-02-13T03:28:43.023Z,101283.69
2023-02-13T03:31:26.616Z,101286.03
2023-02-13T03:34:02.933Z,101286.94
2023-02-13T03:37:19.672Z,101288.53
2023-02-13T03:40:03.886Z,101285.34
2023-02-13T03:42:45.443Z,101285.22
2023-02-13T03:45:46.545Z,101283.03
2023-02-13T03:48:38.482Z,101278.41
2023-02-13T03:51:08.025Z,101282.44
2023-02-13T03:53:38.893Z,101278.69
2023-02-13T03:56:26.510Z,101279.00
2023-02-13T03:59:16.178Z,101281.25
2023-02-13T04:01:53.786Z,101276.16
2023-02-13T04:04:24.277Z,101277.78
2023-02-13T04:07:30.914Z,101279.38
2023-02-13T04:10:16.876Z,101287.56
2023-02-13T04:13:14.774Z,101294.09
2023-02-13T04:15:49.022Z,101290.22
2023-02-13T04:18:25.754Z,101288.63
2023-02-13T04:20:54.143Z,101288.38
2023-02-13T04:23:22.143Z,101288.13
2023-02-13T04:25:52.880Z,101285.91
2023-02-13T04:28:21.235Z,101283.00
2023-02-13T04:30:50.333Z,101284.75
2023-02-13T04:33:18.385Z,101287.66
2023-02-13T04:35:46.717Z,101280.66
2023-02-13T04:38:14.686Z,101275.75
2023-02-13T04:40:42.775Z,101274.88
2023-02-13T04:43:11.022Z,101275.00
2023-02-13T04:45:39.099Z,101279.12
2023-02-13T04:48:07.139Z,101275.69
2023-02-13T04:50:35.603Z,101276.56
2023-02-13T04:53:03.621Z,101278.81
2023-02-13T04:55:31.659Z,101276.78
2023-02-13T04:58:00.127Z,101273.25
2023-02-13T05:00:29.098Z,101273.03
2023-02-13T05:03:11.728Z,101268.06
2023-02-13T05:05:40.646Z,101270.59
2023-02-13T05:08:09.367Z,101264.03
2023-02-13T05:10:37.605Z,101274.88
2023-02-13T05:13:05.953Z,101269.31
2023-02-13T05:15:34.030Z,101265.47
2023-02-13T05:18:02.116Z,101263.47
2023-02-13T05:20:36.896Z,101259.16
2023-02-13T05:23:24.308Z,101261.06
2023-02-13T05:25:52.883Z,101256.06
2023-02-13T05:28:39.425Z,101261.06
2023-02-13T05:31:07.899Z,101263.28
2023-02-13T05:33:36.044Z,101259.66
2023-02-13T05:36:04.350Z,101259.25
2023-02-13T05:38:32.847Z,101254.66
2023-02-13T05:41:01.253Z,101253.75
2023-02-13T05:43:30.218Z,101258.16
2023-02-13T05:46:16.860Z,101258.19
2023-02-13T05:48:44.889Z,101264.59
2023-02-13T05:51:13.529Z,101260.25
2023-02-13T05:53:41.465Z,101261.47
2023-02-13T05:56:09.577Z,101262.81
2023-02-13T05:58:38.127Z,101271.69
2023-02-13T06:01:06.057Z,101266.41
2023-02-13T06:03:34.592Z,101265.72
2023-02-13T06:06:02.680Z,101261.38
2023-02-13T06:08:30.700Z,101271.34
2023-02-13T06:10:59.385Z,101275.19
2023-02-13T06:13:27.642Z,101283.47
2023-02-13T06:15:55.675Z,101282.09
2023-02-13T06:18:24.293Z,101279.25
2023-02-13T06:20:52.258Z,101286.91
2023-02-13T06:23:20.261Z,101291.03
2023-02-13T06:25:48.572Z,101292.56
2023-02-13T06:28:16.690Z,101292.34
2023-02-13T06:30:44.941Z,101294.56
2023-02-13T06:33:13.233Z,101303.44
2023-02-13T06:35:42.167Z,101304.47
2023-02-13T06:38:10.125Z,101311.41
2023-02-13T06:40:38.527Z,101306.38
2023-02-13T06:43:06.672Z,101307.97
2023-02-13T06:45:34.674Z,101309.22
2023-02-13T06:48:02.993Z,101310.66
2023-02-13T06:50:30.964Z,101305.81
2023-02-13T06:52:58.923Z,101299.47
2023-02-13T06:55:27.707Z,101300.44
2023-02-13T06:57:55.683Z,101304.00
2023-02-13T07:00:26.138Z,101310.06
2023-02-13T07:02:55.499Z,101308.06
2023-02-13T07:05:23.524Z,101310.09
2023-02-13T07:07:51.498Z,101304.16
2023-02-13T07:10:19.916Z,101315.22
2023-02-13T07:13:00.246Z,101307.84
2023-02-13T07:15:34.315Z,101302.84
2023-02-13T07:18:02.605Z,101313.84
2023-02-13T07:20:30.742Z,101312.03
2023-02-13T07:23:03.186Z,101314.72
2023-02-13T07:25:31.947Z,101306.72
2023-02-13T07:28:07.102Z,101311.78
2023-02-13T07:30:35.523Z,101317.47
2023-02-13T07:33:04.993Z,101315.50
2023-02-13T07:35:33.444Z,101320.03
2023-02-13T07:38:01.476Z,101320.00
2023-02-13T07:40:30.055Z,101315.78
2023-02-13T07:43:00.873Z,101321.03
2023-02-13T07:45:29.555Z,101310.56
2023-02-13T07:47:58.189Z,101311.97
2023-02-13T07:50:27.659Z,101315.47
2023-02-13T07:53:01.408Z,101315.94
2023-02-13T07:55:30.360Z,101326.28
2023-02-13T07:58:00.849Z,101322.13
2023-02-13T08:00:28.870Z,101321.63
2023-02-13T08:03:00.948Z,101319.88
2023-02-13T08:05:30.218Z,101319.81
2023-02-13T08:07:58.582Z,101318.66
2023-02-13T08:10:45.136Z,101317.91
2023-02-13T08:13:14.639Z,101318.03
2023-02-13T08:15:44.796Z,101327.97
2023-02-13T08:18:13.382Z,101326.97
2023-02-13T08:20:41.306Z,101322.50
2023-02-13T08:23:11.612Z,101322.25
2023-02-13T08:25:40.076Z,101317.47
2023-02-13T08:28:08.144Z,101316.75
2023-02-13T08:30:36.698Z,101317.31
2023-02-13T08:33:05.085Z,101317.94
2023-02-13T08:35:33.215Z,101308.19
2023-02-13T08:38:05.067Z,101307.22
2023-02-13T08:40:34.027Z,101310.16
2023-02-13T08:43:03.128Z,101305.06
2023-02-13T08:45:31.862Z,101303.94
2023-02-13T08:48:02.695Z,101313.38
2023-02-13T08:50:30.707Z,101305.00
2023-02-13T08:52:59.740Z,101307.72
2023-02-13T08:55:29.195Z,101305.63
2023-02-13T08:58:00.160Z,101309.81
2023-02-13T09:00:30.686Z,101306.94
2023-02-13T09:03:03.065Z,101307.75
2023-02-13T09:05:32.841Z,101312.44
2023-02-13T09:08:03.880Z,101309.75
2023-02-13T09:10:32.973Z,101313.34
2023-02-13T09:13:04.114Z,101307.31
2023-02-13T09:15:34.664Z,101313.75
2023-02-13T09:18:02.766Z,101313.44
2023-02-13T09:20:30.796Z,101314.94
2023-02-13T09:22:59.079Z,101315.88
2023-02-13T09:25:28.712Z,101310.28
2023-02-13T09:27:56.675Z,101310.03
2023-02-13T09:30:25.096Z,101312.22
2023-02-13T09:32:55.675Z,101314.25
2023-02-13T09:35:24.476Z,101309.66
2023-02-13T09:37:52.809Z,101315.03
2023-02-13T09:40:29.091Z,101311.22
2023-02-13T09:43:26.626Z,101310.41
2023-02-13T09:45:54.533Z,101306.91
2023-02-13T09:48:31.046Z,101315.69
2023-02-13T09:50:59.320Z,101307.44
2023-02-13T09:53:29.782Z,101306.53
2023-02-13T09:56:11.670Z,101302.22
2023-02-13T09:59:00.385Z,101294.66
2023-02-13T10:01:35.697Z,101299.97
2023-02-13T10:04:30.804Z,101304.00
2023-02-13T10:07:10.061Z,101297.56
2023-02-13T10:10:08.039Z,101298.81
2023-02-13T10:12:46.240Z,101293.50
2023-02-13T10:15:29.493Z,101284.41
2023-02-13T10:18:01.999Z,101294.31
2023-02-13T10:20:35.507Z,101292.97
2023-02-13T10:23:26.184Z,101289.75
2023-02-13T10:26:00.374Z,101280.91
2023-02-13T10:28:35.604Z,101286.69
2023-02-13T10:31:16.911Z,101277.69
2023-02-13T10:33:51.850Z,101281.59
2023-02-13T10:36:25.817Z,101273.25
2023-02-13T10:38:58.667Z,101280.00
2023-02-13T10:41:35.864Z,101266.84
2023-02-13T10:44:23.324Z,101269.66
2023-02-13T10:46:57.894Z,101271.16
2023-02-13T10:49:25.730Z,101268.03
2023-02-13T10:52:27.994Z,101267.16
2023-02-13T10:55:06.450Z,101264.09
2023-02-13T10:58:02.787Z,101255.28
2023-02-13T11:00:45.931Z,101244.53
2023-02-13T11:03:27.597Z,101246.22
2023-02-13T11:05:57.627Z,101241.38
2023-02-13T11:08:34.135Z,101238.25
2023-02-13T11:11:02.182Z,101236.00
2023-02-13T11:13:31.360Z,101229.28
2023-02-13T11:16:06.886Z,101216.37
2023-02-13T11:18:37.879Z,101229.09
2023-02-13T11:21:22.853Z,101223.63
2023-02-13T11:23:52.994Z,101223.53
2023-02-13T11:26:30.175Z,101224.97
2023-02-13T11:29:03.485Z,101212.87
2023-02-13T11:31:35.533Z,101216.72
2023-02-13T11:34:39.312Z,101219.59
2023-02-13T11:37:13.097Z,101216.37
2023-02-13T11:39:42.695Z,101210.53
2023-02-13T11:42:33.872Z,101219.75
2023-02-13T11:45:08.307Z,101211.53
2023-02-13T11:47:45.842Z,101203.34
2023-02-13T11:50:35.300Z,101206.78
2023-02-13T11:53:09.904Z,101199.19
2023-02-13T11:55:40.835Z,101194.13
2023-02-13T11:58:11.888Z,101194.34
2023-02-13T12:00:41.805Z,101193.50
2023-02-13T12:03:22.614Z,101190.59
2023-02-13T12:06:00.960Z,101188.25
2023-02-13T12:08:30.969Z,101188.06
2023-02-13T12:10:59.891Z,101185.75
2023-02-13T12:13:39.150Z,101187.53
2023-02-13T12:16:14.729Z,101188.06
2023-02-13T12:18:47.089Z,101178.06
2023-02-13T12:21:18.360Z,101177.84
2023-02-13T12:23:58.590Z,101177.25
2023-02-13T12:26:43.366Z,101185.28
2023-02-13T12:29:50.318Z,101177.34
2023-02-13T12:32:21.236Z,101163.91
2023-02-13T12:34:53.968Z,101155.03
2023-02-13T12:37:31.936Z,101154.88
2023-02-13T12:40:16.029Z,101160.78
2023-02-13T12:43:19.505Z,101156.22
2023-02-13T12:46:13.768Z,101156.50
2023-02-13T12:49:00.838Z,101145.94
2023-02-13T12:51:49.012Z,101149.16
2023-02-13T12:54:43.403Z,101137.59
2023-02-13T12:57:36.995Z,101127.00
2023-02-13T13:00:33.145Z,101133.94
2023-02-13T13:03:46.210Z,101123.69
2023-02-13T13:06:37.988Z,101130.34
2023-02-13T13:09:44.982Z,101118.75
2023-02-13T13:12:16.327Z,101121.03
2023-02-13T13:15:07.633Z,101122.38
2023-02-13T13:17:39.195Z,101119.06
2023-02-13T13:20:28.865Z,101121.19
2023-02-13T13:23:01.255Z,101115.84
2023-02-13T13:25:43.786Z,101124.34
2023-02-13T13:28:19.925Z,101105.47
2023-02-13T13:30:48.298Z,101118.03
2023-02-13T13:33:17.844Z,101114.34
2023-02-13T13:36:33.813Z,101117.50
2023-02-13T13:39:30.348Z,101123.81
2023-02-13T13:42:21.108Z,101116.28
2023-02-13T13:44:56.543Z,101112.97
2023-02-13T13:48:02.929Z,101117.91
2023-02-13T13:50:33.288Z,101110.53
2023-02-13T13:53:23.010Z,101105.72
2023-02-13T13:55:52.973Z,101102.81
2023-02-13T13:58:25.122Z,101104.72
2023-02-13T14:01:15.857Z,101095.84
2023-02-13T14:03:49.940Z,101097.44
2023-02-13T14:06:29.601Z,101106.59
2023-02-13T14:09:04.105Z,101098.66
2023-02-13T14:11:38.427Z,101106.34
2023-02-13T14:14:28.993Z,101108.56
2023-02-13T14:16:58.412Z,101101.66
2023-02-13T14:19:33.179Z,101109.50
2023-02-13T14:22:19.763Z,101111.53
2023-02-13T14:24:53.282Z,101110.66
2023-02-13T14:27:24.223Z,101109.16
2023-02-13T14:29:52.880Z,101120.81
2023-02-13T14:32:41.314Z,101116.66
2023-02-13T14:35:29.007Z,101118.63
2023-02-13T14:38:02.590Z,101119.03
2023-02-13T14:40:50.334Z,101125.75
2023-02-13T14:43:30.126Z,101123.16
2023-02-13T14:46:05.521Z,101119.56
2023-02-13T14:48:43.020Z,101119.56
2023-02-13T14:51:36.283Z,101123.78
2023-02-13T14:54:06.617Z,101129.50
2023-02-13T14:56:38.152Z,101121.16
2023-02-13T14:59:12.551Z,101122.63
2023-02-13T15:01:47.768Z,101124.87
2023-02-13T15:04:25.477Z,101122.34
2023-02-13T15:06:56.169Z,101119.78
2023-02-13T15:09:39.399Z,101115.97
2023-02-13T15:12:36.141Z,101123.38
2023-02-13T15:15:24.194Z,101122.75
2023-02-13T15:18:05.193Z,101119.00
2023-02-13T15:20:38.920Z,101109.66
2023-02-13T15:23:07.805Z,101118.44
2023-02-13T15:25:40.417Z,101112.56
2023-02-13T15:28:20.174Z,101115.84
2023-02-13T15:30:59.768Z,101114.50
2023-02-13T15:33:33.693Z,101120.41
2023-02-13T15:36:07.970Z,101121.28
2023-02-13T15:38:38.460Z,101122.69
2023-02-13T15:41:24.400Z,101114.97
2023-02-13T15:43:57.608Z,101119.84
2023-02-13T15:46:31.827Z,101113.75
2023-02-13T15:49:08.911Z,101111.06
2023-02-13T15:51:37.624Z,101116.34
2023-02-13T15:54:19.871Z,101105.09
2023-02-13T15:56:49.008Z,101107.44
2023-02-13T15:59:20.128Z,101109.47
2023-02-13T16:01:50.812Z,101110.88
2023-02-13T16:04:20.994Z,101112.25
2023-02-13T16:06:58.132Z,101110.28
2023-02-13T16:09:32.071Z,101105.47
2023-02-13T16:12:08.115Z,101103.97
2023-02-13T16:14:38.114Z,101108.72
2023-02-13T16:17:07.669Z,101122.28
2023-02-13T16:19:39.981Z,101122.94
2023-02-13T16:22:46.656Z,101127.03
2023-02-13T16:25:23.338Z,101126.69
2023-02-13T16:27:55.454Z,101115.13
2023-02-13T16:30:35.740Z,101118.69
2023-02-13T16:33:16.922Z,101124.53
2023-02-13T16:35:50.741Z,101118.37
2023-02-13T16:38:35.724Z,101118.25
2023-02-13T16:41:09.481Z,101112.28
2023-02-13T16:43:37.897Z,101110.47
2023-02-13T16:46:26.306Z,101113.09
2023-02-13T16:48:57.869Z,101104.59
2023-02-13T16:51:33.876Z,101114.84
2023-02-13T16:54:19.953Z,101104.81
2023-02-13T16:56:52.456Z,101104.69
2023-02-13T16:59:42.629Z,101104.03
2023-02-13T17:02:18.473Z,101106.72
2023-02-13T17:05:17.824Z,101111.63
2023-02-13T17:07:54.875Z,101101.31
2023-02-13T17:10:39.510Z,101103.28
2023-02-13T17:13:15.287Z,101095.09
2023-02-13T17:15:45.864Z,101090.03
2023-02-13T17:18:14.198Z,101091.63
2023-02-13T17:20:43.791Z,101083.12
2023-02-13T17:23:22.763Z,101085.13
2023-02-13T17:25:52.852Z,101087.31
2023-02-13T17:28:24.632Z,101080.84
2023-02-13T17:30:56.473Z,101076.84
2023-02-13T17:33:27.907Z,101078.75
2023-02-13T17:35:57.050Z,101080.84
2023-02-13T17:38:25.640Z,101072.06
2023-02-13T17:40:53.836Z,101090.34
2023-02-13T17:43:22.064Z,101089.62
2023-02-13T17:45:50.970Z,101085.56
2023-02-13T17:48:20.879Z,101078.06
2023-02-13T17:50:51.208Z,101079.00
2023-02-13T17:53:32.958Z,101072.47
2023-02-13T17:56:01.099Z,101076.41
2023-02-13T17:58:29.667Z,101077.87
2023-02-13T18:00:57.991Z,101065.84
2023-02-13T18:03:26.965Z,101071.06
2023-02-13T18:05:55.088Z,101064.25
2023-02-13T18:08:23.372Z,101062.69
2023-02-13T18:10:51.796Z,101062.34
2023-02-13T18:13:19.958Z,101051.69
2023-02-13T18:15:48.151Z,101058.50
2023-02-13T18:18:17.961Z,101068.66
2023-02-13T18:20:46.218Z,101066.03
2023-02-13T18:23:14.440Z,101062.75
2023-02-13T18:25:42.960Z,101050.91
2023-02-13T18:28:11.162Z,101041.63
2023-02-13T18:30:42.268Z,101037.09
2023-02-13T18:33:11.173Z,101030.31
2023-02-13T18:35:39.332Z,101034.00
2023-02-13T18:38:07.468Z,101042.16
2023-02-13T18:40:36.589Z,101044.47
2023-02-13T18:43:04.865Z,101035.53
2023-02-13T18:45:33.012Z,101033.16
2023-02-13T18:48:01.643Z,101022.50
2023-02-13T18:50:29.873Z,101032.50
2023-02-13T18:52:58.042Z,101037.22
2023-02-13T18:55:26.622Z,101029.38
2023-02-13T18:57:54.807Z,101022.25
2023-02-13T19:00:23.847Z,101023.94
2023-02-13T19:02:53.075Z,101018.34
2023-02-13T19:05:21.262Z,101013.63
2023-02-13T19:07:49.424Z,101028.88
2023-02-13T19:10:18.056Z,101021.28
2023-02-13T19:12:46.218Z,101023.34
2023-02-13T19:15:14.322Z,101025.09
2023-02-13T19:17:42.939Z,101017.16
2023-02-13T19:20:11.421Z,101012.06
2023-02-13T19:22:39.639Z,101020.44
2023-02-13T19:25:08.422Z,101021.78
2023-02-13T19:27:38.302Z,101017.53
2023-02-13T19:30:09.702Z,101019.19
2023-02-13T19:32:38.301Z,101027.00
2023-02-13T19:35:06.783Z,101019.81
2023-02-13T19:37:43.381Z,101023.56
2023-02-13T19:40:13.811Z,101033.31
2023-02-13T19:42:41.936Z,101028.44
2023-02-13T19:45:10.642Z,101027.37
2023-02-13T19:47:39.179Z,101025.72
2023-02-13T19:50:07.932Z,101029.50
2023-02-13T19:52:36.217Z,101024.94
2023-02-13T19:55:10.844Z,101026.41
2023-02-13T19:57:41.118Z,101017.44
2023-02-13T20:00:11.204Z,101025.97
2023-02-13T20:02:41.541Z,101018.47
2023-02-13T20:05:11.610Z,101021.16
2023-02-13T20:07:42.295Z,101013.28
2023-02-13T20:10:11.554Z,101013.53
2023-02-13T20:12:39.899Z,101010.63
2023-02-13T20:15:08.392Z,101015.34
2023-02-13T20:17:38.545Z,101012.91
2023-02-13T20:20:08.075Z,101007.00
2023-02-13T20:22:37.804Z,101009.69
2023-02-13T20:25:08.188Z,101002.69
2023-02-13T20:27:42.643Z,101004.41
2023-02-13T20:30:15.325Z,100995.16
2023-02-13T20:32:44.768Z,100995.94
2023-02-13T20:35:13.944Z,101001.62
2023-02-13T20:37:43.301Z,100996.69
2023-02-13T20:40:14.438Z,100994.19
2023-02-13T20:42:42.622Z,100999.31
2023-02-13T20:45:10.655Z,100997.28
2023-02-13T20:47:42.212Z,101005.94
2023-02-13T20:50:11.330Z,101004.91
2023-02-13T20:52:40.555Z,101001.19
2023-02-13T20:55:09.597Z,100999.25
2023-02-13T20:57:38.543Z,100998.66
2023-02-13T21:00:09.510Z,100997.81
2023-02-13T21:02:38.795Z,100993.53
2023-02-13T21:05:07.946Z,100993.03
2023-02-13T21:07:36.526Z,100983.09
2023-02-13T21:10:06.205Z,100978.56
2023-02-13T21:12:35.444Z,100988.41
2023-02-13T21:15:03.888Z,100996.37
2023-02-13T21:17:32.007Z,100984.44
2023-02-13T21:20:00.438Z,100991.31
2023-02-13T21:22:28.513Z,100987.38
2023-02-13T21:24:56.605Z,100978.72
2023-02-13T21:27:25.157Z,100988.38
2023-02-13T21:29:53.324Z,100985.28
2023-02-13T21:32:21.542Z,100987.25
2023-02-13T21:34:50.120Z,100988.59
2023-02-13T21:37:18.356Z,101000.44
2023-02-13T21:39:46.403Z,100989.03
2023-02-13T21:42:15.995Z,100993.37
2023-02-13T21:44:44.123Z,100998.47
2023-02-13T21:47:12.349Z,100988.44
2023-02-13T21:49:40.856Z,100997.50
2023-02-13T21:52:08.944Z,101006.91
2023-02-13T21:54:37.286Z,101002.53
2023-02-13T21:57:05.727Z,100985.72
2023-02-13T21:59:33.886Z,100986.66
2023-02-13T22:02:03.005Z,100998.59
2023-02-13T22:04:31.559Z,100996.37
2023-02-13T22:06:59.585Z,101001.97
2023-02-13T22:09:27.976Z,101005.50
2023-02-13T22:11:56.429Z,101004.47
2023-02-13T22:14:24.600Z,101015.19
2023-02-13T22:16:53.063Z,101011.50
2023-02-13T22:19:21.813Z,101008.50
2023-02-13T22:21:50.151Z,101003.00
2023-02-13T22:24:18.171Z,101001.62
2023-02-13T22:26:46.775Z,100994.88
2023-02-13T22:29:16.098Z,100997.78
2023-02-13T22:31:44.976Z,100999.56
2023-02-13T22:34:13.974Z,101000.53
2023-02-13T22:36:43.098Z,100999.16
2023-02-13T22:39:12.928Z,100998.56
2023-02-13T22:41:41.632Z,100991.50
2023-02-13T22:44:09.749Z,100974.44
2023-02-13T22:46:38.184Z,100979.78
2023-02-13T22:49:06.669Z,100992.41
2023-02-13T22:51:36.622Z,100990.94
2023-02-13T22:54:05.584Z,100987.81
2023-02-13T22:56:34.775Z,100998.00
2023-02-13T22:59:03.252Z,100992.56
2023-02-13T23:01:31.493Z,100985.66
2023-02-13T23:04:00.170Z,100976.97
2023-02-13T23:06:28.750Z,100985.09
2023-02-13T23:08:57.230Z,100977.59
2023-02-13T23:11:46.622Z,100987.88
2023-02-13T23:14:15.302Z,100985.63
2023-02-13T23:17:02.731Z,100988.22
2023-02-13T23:19:30.975Z,100993.16
2023-02-13T23:21:59.949Z,100993.97
2023-02-13T23:24:29.427Z,100999.78
2023-02-13T23:26:57.977Z,101001.50
2023-02-13T23:29:27.120Z,100996.97
2023-02-13T23:31:55.438Z,100989.03
2023-02-13T23:34:23.862Z,100988.12
2023-02-13T23:36:52.250Z,100986.63
2023-02-13T23:39:21.373Z,100980.00
2023-02-13T23:41:49.463Z,100970.97
2023-02-13T23:44:17.959Z,100971.41
2023-02-13T23:46:46.173Z,100961.75
2023-02-13T23:49:14.518Z,100962.41
2023-02-13T23:51:43.088Z,100963.53
2023-02-13T23:54:17.195Z,100960.84
2023-02-13T23:56:46.448Z,100953.56
2023-02-13T23:59:16.678Z,100960.16
